sensor_id;sensor_type;location;lat;lon;timestamp;pressure;altitude;pressure_sealevel;temperature;humidity
41102;BME280;26845;50.190;19.178;2023-10-08T00:00:49;98345.93;;;17.09;80.60
41102;BME280;26845;50.190;19.178;2023-10-08T00:03:37;98348.47;;;17.04;81.25
41102;BME280;26845;50.190;19.178;2023-10-08T00:06:04;98354.65;;;16.96;81.86
41102;BME280;26845;50.190;19.178;2023-10-08T00:08:49;98359.34;;;16.82;82.33
41102;BME280;26845;50.190;19.178;2023-10-08T00:11:25;98369.34;;;16.74;82.81
41102;BME280;26845;50.190;19.178;2023-10-08T00:13:54;98362.05;;;16.56;82.65
41102;BME280;26845;50.190;19.178;2023-10-08T00:16:22;98360.09;;;16.36;82.69
41102;BME280;26845;50.190;19.178;2023-10-08T00:18:54;98348.13;;;16.18;83.11
41102;BME280;26845;50.190;19.178;2023-10-08T00:21:25;98354.91;;;16.00;83.03
41102;BME280;26845;50.190;19.178;2023-10-08T00:23:56;98347.50;;;15.78;83.19
41102;BME280;26845;50.190;19.178;2023-10-08T00:26:26;98352.62;;;15.57;83.37
41102;BME280;26845;50.190;19.178;2023-10-08T00:28:54;98353.55;;;15.40;83.47
41102;BME280;26845;50.190;19.178;2023-10-08T00:31:21;98353.13;;;15.28;84.18
41102;BME280;26845;50.190;19.178;2023-10-08T00:33:50;98352.32;;;15.15;84.14
41102;BME280;26845;50.190;19.178;2023-10-08T00:36:22;98352.11;;;15.10;84.39
41102;BME280;26845;50.190;19.178;2023-10-08T00:38:49;98348.88;;;15.03;84.67
41102;BME280;26845;50.190;19.178;2023-10-08T00:41:33;98351.42;;;15.00;85.05
41102;BME280;26845;50.190;19.178;2023-10-08T00:44:06;98353.85;;;14.97;85.26
41102;BME280;26845;50.190;19.178;2023-10-08T00:46:32;98351.45;;;14.96;85.54
41102;BME280;26845;50.190;19.178;2023-10-08T00:49:21;98351.09;;;14.80;85.89
41102;BME280;26845;50.190;19.178;2023-10-08T00:51:51;98354.92;;;14.66;86.24
41102;BME280;26845;50.190;19.178;2023-10-08T00:54:27;98355.66;;;14.56;86.82
41102;BME280;26845;50.190;19.178;2023-10-08T00:57:50;98355.73;;;14.43;87.02
41102;BME280;26845;50.190;19.178;2023-10-08T01:00:19;98359.36;;;14.38;87.19
41102;BME280;26845;50.190;19.178;2023-10-08T01:02:59;98362.56;;;14.39;87.39
41102;BME280;26845;50.190;19.178;2023-10-08T01:05:28;98359.91;;;14.35;87.52
41102;BME280;26845;50.190;19.178;2023-10-08T01:08:15;98360.54;;;14.35;87.80
41102;BME280;26845;50.190;19.178;2023-10-08T01:11:15;98363.71;;;14.35;88.01
41102;BME280;26845;50.190;19.178;2023-10-08T01:13:42;98359.06;;;14.31;88.20
41102;BME280;26845;50.190;19.178;2023-10-08T01:16:11;98361.06;;;14.29;88.34
41102;BME280;26845;50.190;19.178;2023-10-08T01:18:37;98352.92;;;14.29;88.67
41102;BME280;26845;50.190;19.178;2023-10-08T01:21:09;98352.15;;;14.23;88.85
41102;BME280;26845;50.190;19.178;2023-10-08T01:24:03;98350.05;;;14.16;89.06
41102;BME280;26845;50.190;19.178;2023-10-08T01:26:35;98356.85;;;14.11;89.61
41102;BME280;26845;50.190;19.178;2023-10-08T01:29:08;98347.14;;;14.10;89.51
41102;BME280;26845;50.190;19.178;2023-10-08T01:31:46;98348.81;;;14.15;89.79
41102;BME280;26845;50.190;19.178;2023-10-08T01:34:15;98359.60;;;14.13;89.32
41102;BME280;26845;50.190;19.178;2023-10-08T01:36:43;98362.13;;;13.94;88.52
41102;BME280;26845;50.190;19.178;2023-10-08T01:39:11;98362.58;;;13.66;87.70
41102;BME280;26845;50.190;19.178;2023-10-08T01:41:43;98367.91;;;13.33;87.32
41102;BME280;26845;50.190;19.178;2023-10-08T01:44:25;98389.55;;;13.12;87.56
41102;BME280;26845;50.190;19.178;2023-10-08T01:46:53;98396.95;;;13.03;87.80
41102;BME280;26845;50.190;19.178;2023-10-08T01:49:23;98401.18;;;12.88;87.83
41102;BME280;26845;50.190;19.178;2023-10-08T01:51:56;98391.96;;;12.67;87.66
41102;BME280;26845;50.190;19.178;2023-10-08T01:54:23;98395.52;;;12.54;88.05
41102;BME280;26845;50.190;19.178;2023-10-08T01:56:51;98394.39;;;12.43;88.25
41102;BME280;26845;50.190;19.178;2023-10-08T01:59:17;98402.82;;;12.32;88.41
41102;BME280;26845;50.190;19.178;2023-10-08T02:01:45;98411.74;;;12.27;88.65
41102;BME280;26845;50.190;19.178;2023-10-08T02:04:12;98414.19;;;12.22;88.84
41102;BME280;26845;50.190;19.178;2023-10-08T02:06:59;98404.32;;;12.12;88.84
41102;BME280;26845;50.190;19.178;2023-10-08T02:09:26;98406.28;;;11.96;88.86
41102;BME280;26845;50.190;19.178;2023-10-08T02:12:00;98397.77;;;11.84;89.19
41102;BME280;26845;50.190;19.178;2023-10-08T02:14:30;98403.19;;;11.79;89.34
41102;BME280;26845;50.190;19.178;2023-10-08T02:17:02;98395.16;;;11.72;89.43
41102;BME280;26845;50.190;19.178;2023-10-08T02:19:40;98402.06;;;11.65;89.57
41102;BME280;26845;50.190;19.178;2023-10-08T02:22:08;98409.73;;;11.66;89.87
41102;BME280;26845;50.190;19.178;2023-10-08T02:24:36;98416.03;;;11.69;89.99
41102;BME280;26845;50.190;19.178;2023-10-08T02:27:09;98426.63;;;11.67;89.94
41102;BME280;26845;50.190;19.178;2023-10-08T02:29:40;98420.61;;;11.64;89.68
41102;BME280;26845;50.190;19.178;2023-10-08T02:32:15;98403.60;;;11.60;89.71
41102;BME280;26845;50.190;19.178;2023-10-08T02:34:49;98410.91;;;11.55;89.70
41102;BME280;26845;50.190;19.178;2023-10-08T02:37:31;98418.69;;;11.49;89.75
41102;BME280;26845;50.190;19.178;2023-10-08T02:40:05;98422.45;;;11.49;89.93
41102;BME280;26845;50.190;19.178;2023-10-08T02:42:47;98417.87;;;11.48;90.05
41102;BME280;26845;50.190;19.178;2023-10-08T02:45:18;98418.48;;;11.51;90.10
41102;BME280;26845;50.190;19.178;2023-10-08T02:47:44;98431.94;;;11.40;89.85
41102;BME280;26845;50.190;19.178;2023-10-08T02:50:14;98434.02;;;11.34;90.01
41102;BME280;26845;50.190;19.178;2023-10-08T02:52:43;98437.36;;;11.30;90.21
41102;BME280;26845;50.190;19.178;2023-10-08T02:55:12;98428.66;;;11.31;90.32
41102;BME280;26845;50.190;19.178;2023-10-08T02:58:01;98424.41;;;11.28;90.47
41102;BME280;26845;50.190;19.178;2023-10-08T03:00:28;98433.23;;;11.24;90.48
41102;BME280;26845;50.190;19.178;2023-10-08T03:03:13;98451.10;;;11.17;90.55
41102;BME280;26845;50.190;19.178;2023-10-08T03:05:52;98458.02;;;11.08;90.52
41102;BME280;26845;50.190;19.178;2023-10-08T03:08:41;98470.33;;;11.02;90.74
41102;BME280;26845;50.190;19.178;2023-10-08T03:11:08;98467.13;;;10.95;90.66
41102;BME280;26845;50.190;19.178;2023-10-08T03:13:43;98460.38;;;10.85;90.69
41102;BME280;26845;50.190;19.178;2023-10-08T03:16:14;98465.98;;;10.80;90.75
41102;BME280;26845;50.190;19.178;2023-10-08T03:18:41;98467.52;;;10.76;90.93
41102;BME280;26845;50.190;19.178;2023-10-08T03:21:26;98465.58;;;10.70;90.87
41102;BME280;26845;50.190;19.178;2023-10-08T03:24:23;98470.34;;;10.65;91.04
41102;BME280;26845;50.190;19.178;2023-10-08T03:27:19;98468.23;;;10.64;91.09
41102;BME280;26845;50.190;19.178;2023-10-08T03:29:53;98458.50;;;10.56;90.94
41102;BME280;26845;50.190;19.178;2023-10-08T03:32:19;98470.23;;;10.58;91.41
41102;BME280;26845;50.190;19.178;2023-10-08T03:34:52;98476.48;;;10.62;91.42
41102;BME280;26845;50.190;19.178;2023-10-08T03:37:38;98492.05;;;10.64;91.50
41102;BME280;26845;50.190;19.178;2023-10-08T03:40:11;98531.17;;;10.69;91.79
41102;BME280;26845;50.190;19.178;2023-10-08T03:43:09;98537.67;;;10.72;91.77
41102;BME280;26845;50.190;19.178;2023-10-08T03:45:46;98541.90;;;10.68;91.52
41102;BME280;26845;50.190;19.178;2023-10-08T03:48:37;98543.94;;;10.62;91.69
41102;BME280;26845;50.190;19.178;2023-10-08T03:51:11;98538.78;;;10.55;91.65
41102;BME280;26845;50.190;19.178;2023-10-08T03:53:38;98535.97;;;10.52;91.86
41102;BME280;26845;50.190;19.178;2023-10-08T03:56:24;98542.95;;;10.47;91.93
41102;BME280;26845;50.190;19.178;2023-10-08T03:58:58;98549.77;;;10.43;92.02
41102;BME280;26845;50.190;19.178;2023-10-08T04:01:33;98557.14;;;10.39;92.18
41102;BME280;26845;50.190;19.178;2023-10-08T04:04:03;98561.41;;;10.35;92.61
41102;BME280;26845;50.190;19.178;2023-10-08T04:06:30;98563.13;;;10.32;92.48
41102;BME280;26845;50.190;19.178;2023-10-08T04:09:19;98581.42;;;10.29;92.95
41102;BME280;26845;50.190;19.178;2023-10-08T04:11:52;98588.68;;;10.24;92.75
41102;BME280;26845;50.190;19.178;2023-10-08T04:14:28;98588.66;;;10.26;92.98
41102;BME280;26845;50.190;19.178;2023-10-08T04:17:02;98585.84;;;10.23;92.69
41102;BME280;26845;50.190;19.178;2023-10-08T04:19:29;98598.07;;;10.19;92.59
41102;BME280;26845;50.190;19.178;2023-10-08T04:22:13;98617.27;;;10.17;92.68
41102;BME280;26845;50.190;19.178;2023-10-08T04:24:43;98629.62;;;10.18;92.84
41102;BME280;26845;50.190;19.178;2023-10-08T04:27:11;98628.27;;;10.17;92.87
41102;BME280;26845;50.190;19.178;2023-10-08T04:29:59;98626.31;;;10.09;92.77
41102;BME280;26845;50.190;19.178;2023-10-08T04:32:26;98629.20;;;10.07;92.79
41102;BME280;26845;50.190;19.178;2023-10-08T04:35:00;98620.06;;;10.06;92.95
41102;BME280;26845;50.190;19.178;2023-10-08T04:37:47;98621.08;;;10.08;92.98
41102;BME280;26845;50.190;19.178;2023-10-08T04:40:17;98623.83;;;10.09;92.79
41102;BME280;26845;50.190;19.178;2023-10-08T04:42:49;98629.48;;;10.09;92.75
41102;BME280;26845;50.190;19.178;2023-10-08T04:45:28;98633.35;;;10.12;92.82
41102;BME280;26845;50.190;19.178;2023-10-08T04:48:11;98641.63;;;10.09;92.79
41102;BME280;26845;50.190;19.178;2023-10-08T04:50:48;98644.20;;;10.11;92.98
41102;BME280;26845;50.190;19.178;2023-10-08T04:53:31;98661.39;;;10.12;93.11
41102;BME280;26845;50.190;19.178;2023-10-08T04:56:07;98670.55;;;10.10;92.85
41102;BME280;26845;50.190;19.178;2023-10-08T04:58:45;98667.95;;;10.09;92.96
41102;BME280;26845;50.190;19.178;2023-10-08T05:01:17;98667.88;;;10.10;92.94
41102;BME280;26845;50.190;19.178;2023-10-08T05:03:55;98683.52;;;10.09;92.95
41102;BME280;26845;50.190;19.178;2023-10-08T05:06:37;98708.00;;;10.07;93.01
41102;BME280;26845;50.190;19.178;2023-10-08T05:09:41;98720.08;;;10.06;93.08
41102;BME280;26845;50.190;19.178;2023-10-08T05:12:26;98716.23;;;10.02;93.17
41102;BME280;26845;50.190;19.178;2023-10-08T05:15:11;98719.73;;;9.98;93.31
41102;BME280;26845;50.190;19.178;2023-10-08T05:18:02;98721.10;;;9.94;93.25
41102;BME280;26845;50.190;19.178;2023-10-08T05:21:08;98700.18;;;9.96;93.38
41102;BME280;26845;50.190;19.178;2023-10-08T05:23:54;98695.08;;;9.94;93.33
41102;BME280;26845;50.190;19.178;2023-10-08T05:26:39;98684.98;;;9.95;93.50
41102;BME280;26845;50.190;19.178;2023-10-08T05:29:42;98706.95;;;9.96;93.59
41102;BME280;26845;50.190;19.178;2023-10-08T05:32:37;98734.36;;;9.94;93.56
41102;BME280;26845;50.190;19.178;2023-10-08T05:35:25;98745.17;;;9.95;93.62
41102;BME280;26845;50.190;19.178;2023-10-08T05:38:15;98750.11;;;9.95;93.72
41102;BME280;26845;50.190;19.178;2023-10-08T05:40:49;98759.14;;;9.96;93.78
41102;BME280;26845;50.190;19.178;2023-10-08T05:43:44;98759.64;;;9.97;93.82
41102;BME280;26845;50.190;19.178;2023-10-08T05:46:21;98767.98;;;9.98;93.93
41102;BME280;26845;50.190;19.178;2023-10-08T05:49:39;98779.86;;;9.98;93.97
41102;BME280;26845;50.190;19.178;2023-10-08T05:53:00;98791.37;;;9.95;93.85
41102;BME280;26845;50.190;19.178;2023-10-08T05:55:49;98794.34;;;9.91;93.91
41102;BME280;26845;50.190;19.178;2023-10-08T05:58:27;98801.38;;;9.89;93.94
41102;BME280;26845;50.190;19.178;2023-10-08T06:01:13;98798.23;;;9.94;94.14
41102;BME280;26845;50.190;19.178;2023-10-08T06:04:05;98796.04;;;9.98;94.20
41102;BME280;26845;50.190;19.178;2023-10-08T06:06:56;98804.91;;;9.98;94.19
41102;BME280;26845;50.190;19.178;2023-10-08T06:09:37;98810.13;;;10.00;94.29
41102;BME280;26845;50.190;19.178;2023-10-08T06:12:13;98814.34;;;9.96;94.56
41102;BME280;26845;50.190;19.178;2023-10-08T06:14:48;98823.96;;;9.88;94.15
41102;BME280;26845;50.190;19.178;2023-10-08T06:17:38;98828.49;;;9.91;94.35
41102;BME280;26845;50.190;19.178;2023-10-08T06:20:42;98834.61;;;9.93;94.26
41102;BME280;26845;50.190;19.178;2023-10-08T06:23:12;98838.17;;;9.95;94.38
41102;BME280;26845;50.190;19.178;2023-10-08T06:25:44;98850.73;;;9.96;94.37
41102;BME280;26845;50.190;19.178;2023-10-08T06:28:16;98859.96;;;9.95;94.35
41102;BME280;26845;50.190;19.178;2023-10-08T06:31:12;98857.81;;;9.93;94.33
41102;BME280;26845;50.190;19.178;2023-10-08T06:33:56;98859.28;;;9.95;94.60
41102;BME280;26845;50.190;19.178;2023-10-08T06:36:23;98859.20;;;9.86;94.57
41102;BME280;26845;50.190;19.178;2023-10-08T06:38:54;98868.45;;;9.85;94.38
41102;BME280;26845;50.190;19.178;2023-10-08T06:41:20;98867.16;;;9.87;94.55
41102;BME280;26845;50.190;19.178;2023-10-08T06:43:54;98875.84;;;9.92;94.67
41102;BME280;26845;50.190;19.178;2023-10-08T06:46:43;98884.77;;;9.97;94.65
41102;BME280;26845;50.190;19.178;2023-10-08T06:49:09;98896.36;;;9.98;94.34
41102;BME280;26845;50.190;19.178;2023-10-08T06:51:44;98904.38;;;9.95;94.37
41102;BME280;26845;50.190;19.178;2023-10-08T06:54:20;98908.88;;;9.91;94.47
41102;BME280;26845;50.190;19.178;2023-10-08T06:57:06;98919.17;;;9.87;94.23
41102;BME280;26845;50.190;19.178;2023-10-08T06:59:52;98917.80;;;9.90;94.47
41102;BME280;26845;50.190;19.178;2023-10-08T07:02:19;98913.53;;;9.92;94.36
41102;BME280;26845;50.190;19.178;2023-10-08T07:05:01;98907.94;;;9.94;94.48
41102;BME280;26845;50.190;19.178;2023-10-08T07:07:34;98912.39;;;9.92;94.40
41102;BME280;26845;50.190;19.178;2023-10-08T07:10:05;98915.41;;;9.90;94.34
41102;BME280;26845;50.190;19.178;2023-10-08T07:12:50;98925.15;;;9.89;94.56
41102;BME280;26845;50.190;19.178;2023-10-08T07:15:28;98926.73;;;9.90;94.56
41102;BME280;26845;50.190;19.178;2023-10-08T07:18:15;98932.86;;;9.92;94.55
41102;BME280;26845;50.190;19.178;2023-10-08T07:20:52;98949.39;;;9.93;94.52
41102;BME280;26845;50.190;19.178;2023-10-08T07:23:39;98949.34;;;9.93;94.66
41102;BME280;26845;50.190;19.178;2023-10-08T07:26:25;98950.52;;;9.86;94.67
41102;BME280;26845;50.190;19.178;2023-10-08T07:29:27;98949.11;;;9.79;94.64
41102;BME280;26845;50.190;19.178;2023-10-08T07:31:58;98955.39;;;9.77;95.08
41102;BME280;26845;50.190;19.178;2023-10-08T07:34:39;98963.89;;;9.73;95.51
41102;BME280;26845;50.190;19.178;2023-10-08T07:37:06;98973.05;;;9.67;95.46
41102;BME280;26845;50.190;19.178;2023-10-08T07:39:37;98970.44;;;9.59;96.82
41102;BME280;26845;50.190;19.178;2023-10-08T07:42:16;98970.48;;;9.53;95.85
41102;BME280;26845;50.190;19.178;2023-10-08T07:44:52;98976.17;;;9.58;95.57
41102;BME280;26845;50.190;19.178;2023-10-08T07:47:21;98982.65;;;9.67;95.71
41102;BME280;26845;50.190;19.178;2023-10-08T07:50:05;98988.60;;;9.73;95.57
41102;BME280;26845;50.190;19.178;2023-10-08T07:52:56;98991.04;;;9.79;95.53
41102;BME280;26845;50.190;19.178;2023-10-08T07:55:30;98996.77;;;9.83;95.72
41102;BME280;26845;50.190;19.178;2023-10-08T07:57:59;99000.31;;;9.81;95.59
41102;BME280;26845;50.190;19.178;2023-10-08T08:00:45;98997.00;;;9.75;95.53
41102;BME280;26845;50.190;19.178;2023-10-08T08:03:33;99003.59;;;9.82;96.08
41102;BME280;26845;50.190;19.178;2023-10-08T08:06:16;99011.41;;;9.87;95.87
41102;BME280;26845;50.190;19.178;2023-10-08T08:08:51;99015.47;;;9.99;95.97
41102;BME280;26845;50.190;19.178;2023-10-08T08:11:21;99024.22;;;10.26;96.32
41102;BME280;26845;50.190;19.178;2023-10-08T08:13:51;99032.91;;;10.57;96.37
41102;BME280;26845;50.190;19.178;2023-10-08T08:16:27;99035.38;;;10.76;95.49
41102;BME280;26845;50.190;19.178;2023-10-08T08:19:32;99040.02;;;11.02;95.45
41102;BME280;26845;50.190;19.178;2023-10-08T08:22:03;99044.15;;;11.29;95.33
41102;BME280;26845;50.190;19.178;2023-10-08T08:24:30;99046.27;;;11.51;95.14
41102;BME280;26845;50.190;19.178;2023-10-08T08:27:02;99039.55;;;11.72;94.39
41102;BME280;26845;50.190;19.178;2023-10-08T08:29:34;99034.91;;;11.86;93.93
41102;BME280;26845;50.190;19.178;2023-10-08T08:32:22;99035.66;;;12.04;92.28
41102;BME280;26845;50.190;19.178;2023-10-08T08:35:08;99036.73;;;12.11;93.19
41102;BME280;26845;50.190;19.178;2023-10-08T08:37:53;99031.70;;;12.53;93.48
41102;BME280;26845;50.190;19.178;2023-10-08T08:40:41;99028.79;;;12.79;92.19
41102;BME280;26845;50.190;19.178;2023-10-08T08:43:08;99034.27;;;13.11;91.52
41102;BME280;26845;50.190;19.178;2023-10-08T08:46:02;99033.98;;;13.44;91.04
41102;BME280;26845;50.190;19.178;2023-10-08T08:48:34;99042.39;;;13.47;90.33
41102;BME280;26845;50.190;19.178;2023-10-08T08:51:12;99046.14;;;13.61;90.30
41102;BME280;26845;50.190;19.178;2023-10-08T08:53:39;99045.37;;;13.63;89.83
41102;BME280;26845;50.190;19.178;2023-10-08T08:56:28;99050.52;;;13.59;89.40
41102;BME280;26845;50.190;19.178;2023-10-08T08:59:15;99056.00;;;13.64;89.22
41102;BME280;26845;50.190;19.178;2023-10-08T09:02:02;99051.01;;;13.61;88.88
41102;BME280;26845;50.190;19.178;2023-10-08T09:04:48;99063.27;;;13.57;88.37
41102;BME280;26845;50.190;19.178;2023-10-08T09:07:55;99064.92;;;13.71;87.00
41102;BME280;26845;50.190;19.178;2023-10-08T09:10:52;99073.77;;;13.83;86.83
41102;BME280;26845;50.190;19.178;2023-10-08T09:13:37;99073.98;;;14.01;85.90
41102;BME280;26845;50.190;19.178;2023-10-08T09:16:30;99084.47;;;14.52;86.11
41102;BME280;26845;50.190;19.178;2023-10-08T09:19:01;99082.75;;;14.76;85.69
41102;BME280;26845;50.190;19.178;2023-10-08T09:22:09;99086.77;;;14.52;84.55
41102;BME280;26845;50.190;19.178;2023-10-08T09:24:52;99091.30;;;14.55;84.38
41102;BME280;26845;50.190;19.178;2023-10-08T09:27:19;99092.99;;;14.67;84.28
41102;BME280;26845;50.190;19.178;2023-10-08T09:30:12;99094.42;;;15.00;84.13
41102;BME280;26845;50.190;19.178;2023-10-08T09:32:45;99097.86;;;15.25;82.55
41102;BME280;26845;50.190;19.178;2023-10-08T09:35:50;99100.66;;;15.69;82.85
41102;BME280;26845;50.190;19.178;2023-10-08T09:38:41;99108.67;;;15.78;78.14
41102;BME280;26845;50.190;19.178;2023-10-08T09:41:33;99112.27;;;15.57;79.29
41102;BME280;26845;50.190;19.178;2023-10-08T09:44:24;99120.88;;;15.29;77.65
41102;BME280;26845;50.190;19.178;2023-10-08T09:47:12;99124.63;;;14.82;76.22
41102;BME280;26845;50.190;19.178;2023-10-08T09:49:57;99130.03;;;14.45;75.42
41102;BME280;26845;50.190;19.178;2023-10-08T09:53:07;99130.00;;;14.61;76.56
41102;BME280;26845;50.190;19.178;2023-10-08T09:55:55;99127.81;;;15.10;77.64
41102;BME280;26845;50.190;19.178;2023-10-08T09:58:56;99123.86;;;15.71;76.29
41102;BME280;26845;50.190;19.178;2023-10-08T10:01:42;99121.84;;;16.12;75.45
41102;BME280;26845;50.190;19.178;2023-10-08T10:04:11;99120.83;;;16.40;76.03
41102;BME280;26845;50.190;19.178;2023-10-08T10:07:11;99134.14;;;16.38;71.78
41102;BME280;26845;50.190;19.178;2023-10-08T10:09:56;99137.45;;;16.44;69.40
41102;BME280;26845;50.190;19.178;2023-10-08T10:12:27;99140.70;;;16.57;71.36
41102;BME280;26845;50.190;19.178;2023-10-08T10:14:58;99146.95;;;16.84;71.21
41102;BME280;26845;50.190;19.178;2023-10-08T10:17:27;99145.45;;;17.15;71.23
41102;BME280;26845;50.190;19.178;2023-10-08T10:20:12;99150.02;;;17.35;66.68
41102;BME280;26845;50.190;19.178;2023-10-08T10:22:39;99150.70;;;17.37;68.65
41102;BME280;26845;50.190;19.178;2023-10-08T10:25:09;99152.14;;;17.62;69.80
41102;BME280;26845;50.190;19.178;2023-10-08T10:30:55;99169.58;;;17.78;64.42
41102;BME280;26845;50.190;19.178;2023-10-08T10:34:06;99164.11;;;17.94;65.12
41102;BME280;26845;50.190;19.178;2023-10-08T10:36:58;99163.53;;;18.07;63.57
41102;BME280;26845;50.190;19.178;2023-10-08T10:39:53;99165.06;;;18.16;64.41
41102;BME280;26845;50.190;19.178;2023-10-08T10:42:40;99168.15;;;18.32;62.75
41102;BME280;26845;50.190;19.178;2023-10-08T10:45:30;99169.12;;;18.15;57.36
41102;BME280;26845;50.190;19.178;2023-10-08T10:48:05;99170.33;;;18.12;63.32
41102;BME280;26845;50.190;19.178;2023-10-08T10:50:58;99174.41;;;18.37;62.40
41102;BME280;26845;50.190;19.178;2023-10-08T10:53:59;99180.67;;;18.49;60.78
41102;BME280;26845;50.190;19.178;2023-10-08T10:56:36;99185.31;;;18.45;59.50
41102;BME280;26845;50.190;19.178;2023-10-08T10:59:08;99191.33;;;18.35;59.64
41102;BME280;26845;50.190;19.178;2023-10-08T11:01:56;99189.16;;;18.27;59.44
41102;BME280;26845;50.190;19.178;2023-10-08T11:04:50;99197.96;;;17.95;58.90
41102;BME280;26845;50.190;19.178;2023-10-08T11:07:18;99187.95;;;17.96;58.30
41102;BME280;26845;50.190;19.178;2023-10-08T11:09:46;99188.64;;;17.82;58.83
41102;BME280;26845;50.190;19.178;2023-10-08T11:12:20;99195.23;;;17.51;58.23
41102;BME280;26845;50.190;19.178;2023-10-08T11:14:49;99196.93;;;17.11;58.14
41102;BME280;26845;50.190;19.178;2023-10-08T11:17:24;99194.48;;;17.00;56.51
41102;BME280;26845;50.190;19.178;2023-10-08T11:19:52;99197.05;;;17.15;58.23
41102;BME280;26845;50.190;19.178;2023-10-08T11:22:28;99204.41;;;17.27;58.33
41102;BME280;26845;50.190;19.178;2023-10-08T11:25:19;99205.76;;;17.51;58.06
41102;BME280;26845;50.190;19.178;2023-10-08T11:27:48;99203.98;;;17.79;57.49
41102;BME280;26845;50.190;19.178;2023-10-08T11:30:24;99199.85;;;18.08;57.40
41102;BME280;26845;50.190;19.178;2023-10-08T11:32:50;99195.66;;;18.39;56.85
41102;BME280;26845;50.190;19.178;2023-10-08T11:35:20;99203.13;;;18.49;51.85
41102;BME280;26845;50.190;19.178;2023-10-08T11:37:47;99195.13;;;18.25;52.68
41102;BME280;26845;50.190;19.178;2023-10-08T11:40:24;99196.89;;;18.19;52.20
41102;BME280;26845;50.190;19.178;2023-10-08T11:42:55;99194.24;;;18.11;53.67
41102;BME280;26845;50.190;19.178;2023-10-08T11:45:24;99185.48;;;18.19;53.17
41102;BME280;26845;50.190;19.178;2023-10-08T11:47:51;99188.89;;;18.38;53.86
41102;BME280;26845;50.190;19.178;2023-10-08T11:50:32;99192.39;;;18.54;53.16
41102;BME280;26845;50.190;19.178;2023-10-08T11:53:02;99199.75;;;18.68;52.14
41102;BME280;26845;50.190;19.178;2023-10-08T11:55:29;99204.29;;;18.69;51.58
41102;BME280;26845;50.190;19.178;2023-10-08T11:57:55;99214.55;;;18.82;51.64
41102;BME280;26845;50.190;19.178;2023-10-08T12:00:23;99218.44;;;18.98;51.83
41102;BME280;26845;50.190;19.178;2023-10-08T12:02:51;99217.84;;;19.06;50.92
41102;BME280;26845;50.190;19.178;2023-10-08T12:05:21;99217.98;;;19.15;50.31
41102;BME280;26845;50.190;19.178;2023-10-08T12:07:51;99222.20;;;19.16;49.94
41102;BME280;26845;50.190;19.178;2023-10-08T12:10:17;99223.34;;;19.17;48.73
41102;BME280;26845;50.190;19.178;2023-10-08T12:12:51;99229.25;;;18.99;49.42
41102;BME280;26845;50.190;19.178;2023-10-08T12:15:18;99234.79;;;19.08;49.28
41102;BME280;26845;50.190;19.178;2023-10-08T12:17:47;99240.78;;;18.97;48.40
41102;BME280;26845;50.190;19.178;2023-10-08T12:20:32;99241.77;;;18.92;48.69
41102;BME280;26845;50.190;19.178;2023-10-08T12:23:01;99242.48;;;18.80;46.68
41102;BME280;26845;50.190;19.178;2023-10-08T12:25:27;99249.41;;;18.57;46.60
41102;BME280;26845;50.190;19.178;2023-10-08T12:27:58;99250.39;;;18.49;46.94
41102;BME280;26845;50.190;19.178;2023-10-08T12:30:27;99253.98;;;18.46;45.88
41102;BME280;26845;50.190;19.178;2023-10-08T12:32:56;99249.42;;;18.35;45.65
41102;BME280;26845;50.190;19.178;2023-10-08T12:35:22;99256.64;;;18.37;46.80
41102;BME280;26845;50.190;19.178;2023-10-08T12:37:50;99259.83;;;18.44;46.14
41102;BME280;26845;50.190;19.178;2023-10-08T12:40:16;99257.31;;;18.49;46.49
41102;BME280;26845;50.190;19.178;2023-10-08T12:42:49;99255.26;;;18.65;46.11
41102;BME280;26845;50.190;19.178;2023-10-08T12:45:15;99261.80;;;18.72;46.05
41102;BME280;26845;50.190;19.178;2023-10-08T12:47:49;99266.48;;;18.83;46.44
41102;BME280;26845;50.190;19.178;2023-10-08T12:50:16;99262.08;;;18.96;45.91
41102;BME280;26845;50.190;19.178;2023-10-08T12:52:45;99258.34;;;18.95;45.56
41102;BME280;26845;50.190;19.178;2023-10-08T12:55:29;99256.79;;;18.91;45.68
41102;BME280;26845;50.190;19.178;2023-10-08T12:58:21;99258.67;;;18.75;44.96
41102;BME280;26845;50.190;19.178;2023-10-08T13:00:54;99261.44;;;18.78;44.63
41102;BME280;26845;50.190;19.178;2023-10-08T13:03:25;99265.88;;;18.65;44.42
41102;BME280;26845;50.190;19.178;2023-10-08T13:05:51;99266.24;;;18.53;44.35
41102;BME280;26845;50.190;19.178;2023-10-08T13:08:32;99268.17;;;18.49;44.92
41102;BME280;26845;50.190;19.178;2023-10-08T13:11:02;99269.86;;;18.52;43.89
41102;BME280;26845;50.190;19.178;2023-10-08T13:13:50;99261.64;;;18.40;44.26
41102;BME280;26845;50.190;19.178;2023-10-08T13:16:18;99268.12;;;18.36;43.42
41102;BME280;26845;50.190;19.178;2023-10-08T13:18:50;99268.64;;;18.24;43.96
41102;BME280;26845;50.190;19.178;2023-10-08T13:21:18;99270.63;;;18.18;43.50
41102;BME280;26845;50.190;19.178;2023-10-08T13:23:53;99280.02;;;18.14;43.81
41102;BME280;26845;50.190;19.178;2023-10-08T13:26:29;99280.73;;;18.23;43.23
41102;BME280;26845;50.190;19.178;2023-10-08T13:28:57;99280.49;;;18.36;43.65
41102;BME280;26845;50.190;19.178;2023-10-08T13:31:24;99283.47;;;18.41;42.97
41102;BME280;26845;50.190;19.178;2023-10-08T13:33:50;99282.52;;;18.34;42.81
41102;BME280;26845;50.190;19.178;2023-10-08T13:36:22;99290.88;;;18.42;42.67
41102;BME280;26845;50.190;19.178;2023-10-08T13:38:51;99298.13;;;18.32;42.42
41102;BME280;26845;50.190;19.178;2023-10-08T13:41:25;99300.99;;;18.25;42.74
41102;BME280;26845;50.190;19.178;2023-10-08T13:43:54;99302.48;;;18.06;39.52
41102;BME280;26845;50.190;19.178;2023-10-08T13:46:32;99303.05;;;17.66;41.75
41102;BME280;26845;50.190;19.178;2023-10-08T13:49:01;99304.63;;;17.64;41.42
41102;BME280;26845;50.190;19.178;2023-10-08T13:51:31;99302.16;;;17.39;40.02